createdAt,value
2023-05-05T00:00:00.010Z,87.58
2023-05-05T00:02:28.102Z,87.37
2023-05-05T00:04:57.252Z,87.51
2023-05-05T00:07:25.234Z,87.81
2023-05-05T00:09:54.469Z,87.46
2023-05-05T00:12:22.399Z,87.70
2023-05-05T00:14:50.372Z,88.14
2023-05-05T00:17:18.260Z,87.95
2023-05-05T00:19:46.185Z,87.79
2023-05-05T00:22:14.021Z,87.38
2023-05-05T00:24:42.015Z,87.10
2023-05-05T00:27:11.838Z,87.82
2023-05-05T00:29:39.599Z,87.90
2023-05-05T00:32:07.486Z,87.55
2023-05-05T00:34:35.369Z,87.86
2023-05-05T00:37:04.173Z,87.45
2023-05-05T00:39:33.264Z,87.41
2023-05-05T00:42:01.346Z,87.77
2023-05-05T00:44:40.345Z,87.64
2023-05-05T00:47:09.466Z,87.69
2023-05-05T00:49:38.187Z,87.46
2023-05-05T00:52:07.579Z,87.69
2023-05-05T00:54:35.849Z,87.40
2023-05-05T00:57:04.179Z,87.13
2023-05-05T00:59:34.047Z,87.55
2023-05-05T01:02:03.555Z,87.30
2023-05-05T01:04:31.404Z,87.72
2023-05-05T01:07:16.319Z,87.54
2023-05-05T01:10:17.959Z,87.06
2023-05-05T01:12:52.896Z,87.56
2023-05-05T01:15:28.312Z,87.16
2023-05-05T01:18:04.988Z,87.11
2023-05-05T01:20:41.932Z,87.19
2023-05-05T01:23:17.932Z,87.45
2023-05-05T01:26:14.233Z,88.02
2023-05-05T01:29:04.468Z,87.88
2023-05-05T01:31:51.880Z,87.53
2023-05-05T01:34:24.630Z,87.64
2023-05-05T01:36:59.423Z,88.53
2023-05-05T01:39:32.564Z,88.34
2023-05-05T01:42:06.186Z,87.92
2023-05-05T01:44:36.212Z,88.78
2023-05-05T01:47:07.583Z,88.64
2023-05-05T01:49:37.918Z,88.84
2023-05-05T01:52:08.313Z,88.92
2023-05-05T01:54:43.384Z,88.46
2023-05-05T01:57:12.567Z,88.98
2023-05-05T01:59:41.103Z,88.86
2023-05-05T02:02:12.358Z,88.98
2023-05-05T02:04:44.978Z,89.27
2023-05-05T02:07:14.219Z,89.11
2023-05-05T02:09:45.645Z,88.95
2023-05-05T02:12:14.233Z,89.65
2023-05-05T02:14:45.345Z,89.02
2023-05-05T02:17:16.211Z,89.27
2023-05-05T02:19:46.896Z,89.48
2023-05-05T02:22:16.864Z,89.82
2023-05-05T02:24:45.656Z,89.73
2023-05-05T02:27:17.189Z,89.42
2023-05-05T02:29:49.447Z,89.09
2023-05-05T02:32:23.659Z,89.85
2023-05-05T02:34:54.138Z,89.96
2023-05-05T02:37:25.963Z,89.80
2023-05-05T02:39:59.396Z,90.01
2023-05-05T02:42:30.303Z,90.50
2023-05-05T02:45:03.368Z,90.93
2023-05-05T02:47:45.334Z,90.36
2023-05-05T02:50:13.374Z,90.57
2023-05-05T02:52:50.417Z,90.90
2023-05-05T02:55:18.308Z,90.56
2023-05-05T02:57:50.922Z,90.74
2023-05-05T03:00:25.431Z,91.50
2023-05-05T03:03:02.339Z,92.13
2023-05-05T03:05:38.743Z,91.41
2023-05-05T03:08:12.079Z,91.91
2023-05-05T03:10:48.921Z,91.23
2023-05-05T03:13:19.675Z,91.22
2023-05-05T03:15:50.928Z,91.10
2023-05-05T03:18:23.595Z,91.55
2023-05-05T03:20:52.668Z,91.33
2023-05-05T03:23:22.815Z,91.89
2023-05-05T03:25:51.974Z,92.33
2023-05-05T03:28:19.753Z,92.10
2023-05-05T03:30:47.606Z,92.16
2023-05-05T03:33:16.802Z,92.57
2023-05-05T03:35:46.193Z,93.08
2023-05-05T03:38:14.063Z,93.09
2023-05-05T03:40:44.825Z,93.48
2023-05-05T03:43:13.114Z,92.75
2023-05-05T03:45:41.206Z,92.76
2023-05-05T03:48:10.111Z,93.15
2023-05-05T03:50:37.994Z,92.62
2023-05-05T03:53:07.290Z,92.46
2023-05-05T03:55:35.253Z,92.30
2023-05-05T03:58:03.517Z,92.94
2023-05-05T04:00:31.695Z,91.98
2023-05-05T04:02:59.739Z,92.62
2023-05-05T04:05:27.920Z,91.88
2023-05-05T04:07:58.007Z,92.02
2023-05-05T04:10:27.875Z,92.02
2023-05-05T04:12:56.491Z,91.70
2023-05-05T04:15:24.474Z,91.56
2023-05-05T04:17:52.525Z,91.71
2023-05-05T04:20:20.593Z,91.44
2023-05-05T04:22:49.399Z,90.68
2023-05-05T04:25:19.520Z,90.43
2023-05-05T04:27:48.765Z,90.12
2023-05-05T04:30:16.671Z,90.20
2023-05-05T04:32:44.649Z,89.50
2023-05-05T04:35:12.627Z,89.75
2023-05-05T04:37:40.543Z,89.89
2023-05-05T04:40:10.549Z,89.10
2023-05-05T04:42:38.406Z,89.00
2023-05-05T04:45:09.691Z,88.20
2023-05-05T04:47:40.833Z,87.38
2023-05-05T04:50:09.932Z,86.51
2023-05-05T04:52:38.086Z,85.28
2023-05-05T04:55:06.946Z,84.65
2023-05-05T04:57:34.696Z,82.94
2023-05-05T05:00:04.582Z,81.11
2023-05-05T05:02:34.032Z,76.97
2023-05-05T05:05:02.047Z,73.81
2023-05-05T05:07:30.113Z,70.27
2023-05-05T05:09:58.038Z,68.17
2023-05-05T05:12:26.063Z,66.27
2023-05-05T05:14:55.096Z,64.95
2023-05-05T05:17:24.100Z,64.56
2023-05-05T05:19:54.418Z,63.21
2023-05-05T05:22:23.129Z,62.87
2023-05-05T05:24:52.296Z,62.12
2023-05-05T05:27:20.703Z,61.43
2023-05-05T05:29:48.660Z,61.37
2023-05-05T05:32:16.655Z,61.81
2023-05-05T05:34:44.856Z,62.49
2023-05-05T05:37:14.462Z,63.80
2023-05-05T05:39:43.481Z,64.98
2023-05-05T05:42:11.662Z,65.35
2023-05-05T05:44:39.511Z,66.01
2023-05-05T05:47:07.333Z,65.65
2023-05-05T05:49:35.232Z,66.45
2023-05-05T05:52:03.135Z,64.74
2023-05-05T05:54:34.353Z,63.04
2023-05-05T05:57:02.492Z,61.21
2023-05-05T05:59:30.816Z,59.32
2023-05-05T06:01:58.800Z,59.03
2023-05-05T06:04:26.695Z,58.39
2023-05-05T06:06:54.705Z,57.12
2023-05-05T06:09:22.596Z,56.17
2023-05-05T06:11:52.070Z,56.31
2023-05-05T06:14:20.195Z,55.56
2023-05-05T06:16:48.413Z,54.81
2023-05-05T06:19:16.260Z,55.42
2023-05-05T06:21:43.986Z,55.26
2023-05-05T06:24:12.089Z,53.99
2023-05-05T06:26:39.938Z,54.21
2023-05-05T06:29:11.028Z,53.93
2023-05-05T06:31:40.144Z,54.64
2023-05-05T06:34:08.192Z,53.21
2023-05-05T06:36:39.323Z,52.53
2023-05-05T06:39:07.235Z,52.64
2023-05-05T06:41:35.166Z,51.21
2023-05-05T06:44:03.793Z,51.08
2023-05-05T06:46:33.058Z,52.16
2023-05-05T06:49:01.020Z,52.02
2023-05-05T06:51:28.844Z,53.58
2023-05-05T06:53:56.652Z,53.21
2023-05-05T06:56:24.650Z,53.18
2023-05-05T06:58:52.513Z,52.18
2023-05-05T07:01:20.425Z,51.50
2023-05-05T07:03:49.893Z,50.95
2023-05-05T07:06:17.918Z,49.44
2023-05-05T07:08:45.805Z,49.50
2023-05-05T07:11:13.700Z,50.55
2023-05-05T07:13:41.538Z,49.28
2023-05-05T07:16:09.475Z,51.16
2023-05-05T07:18:38.424Z,48.01
2023-05-05T07:21:07.722Z,48.84
2023-05-05T07:23:37.346Z,48.79
2023-05-05T07:26:05.346Z,48.09
2023-05-05T07:28:33.211Z,47.41
2023-05-05T07:31:01.282Z,47.43
2023-05-05T07:33:29.264Z,47.96
2023-05-05T07:35:57.266Z,48.55
2023-05-05T07:38:26.682Z,49.00
2023-05-05T07:40:54.543Z,48.83
2023-05-05T07:43:22.453Z,49.17
2023-05-05T07:45:50.353Z,49.65
2023-05-05T07:48:18.281Z,48.16
2023-05-05T07:50:46.240Z,47.47
2023-05-05T07:53:15.495Z,47.71
2023-05-05T07:55:44.720Z,48.21
2023-05-05T07:58:12.643Z,48.41
2023-05-05T08:00:40.879Z,49.05
2023-05-05T08:03:11.686Z,48.44
2023-05-05T08:05:40.527Z,49.18
2023-05-05T08:08:08.488Z,48.96
2023-05-05T08:10:37.259Z,50.22
2023-05-05T08:13:06.645Z,50.72
2023-05-05T08:15:34.514Z,51.48
2023-05-05T08:18:02.519Z,52.95
2023-05-05T08:20:30.942Z,53.70
2023-05-05T08:22:58.821Z,53.10
2023-05-05T08:25:27.514Z,53.47
2023-05-05T08:27:55.662Z,53.09
2023-05-05T08:30:25.084Z,52.66
2023-05-05T08:32:53.007Z,52.92
2023-05-05T08:35:21.194Z,52.76
2023-05-05T08:37:49.135Z,53.16
2023-05-05T08:40:16.897Z,53.22
2023-05-05T08:42:46.406Z,54.42
2023-05-05T08:45:14.371Z,54.83
2023-05-05T08:47:44.756Z,54.62
2023-05-05T08:50:13.654Z,55.39
2023-05-05T08:52:44.796Z,55.18
2023-05-05T08:55:19.365Z,53.94
2023-05-05T08:57:52.674Z,54.30
2023-05-05T09:00:21.875Z,54.21
2023-05-05T09:02:51.673Z,54.09
2023-05-05T09:05:19.879Z,54.25
2023-05-05T09:07:47.832Z,55.12
2023-05-05T09:10:15.879Z,55.12
2023-05-05T09:12:44.064Z,55.90
2023-05-05T09:15:13.777Z,55.06
2023-05-05T09:17:42.974Z,55.55
2023-05-05T09:20:13.696Z,54.74
2023-05-05T09:22:46.720Z,55.63
2023-05-05T09:25:15.589Z,54.28
2023-05-05T09:27:45.853Z,54.43
2023-05-05T09:30:16.681Z,55.00
2023-05-05T09:32:48.841Z,53.52
2023-05-05T09:35:19.677Z,54.25
2023-05-05T09:37:50.813Z,54.00
2023-05-05T09:40:21.396Z,54.25
2023-05-05T09:42:49.554Z,54.27
2023-05-05T09:45:27.870Z,53.91
2023-05-05T09:47:59.661Z,54.00
2023-05-05T09:50:32.698Z,54.74
2023-05-05T09:53:01.999Z,53.87
2023-05-05T09:55:31.057Z,53.60
2023-05-05T09:58:17.801Z,53.37
2023-05-05T10:00:45.993Z,52.67
2023-05-05T10:03:14.011Z,53.29
2023-05-05T10:05:51.963Z,53.01
2023-05-05T10:08:21.860Z,52.93
2023-05-05T10:10:57.675Z,53.25
2023-05-05T10:13:26.180Z,52.64
2023-05-05T10:15:58.288Z,52.41
2023-05-05T10:18:30.476Z,53.85
2023-05-05T10:21:01.786Z,52.35
2023-05-05T10:23:37.458Z,53.08
2023-05-05T10:26:08.745Z,52.72
2023-05-05T10:28:45.072Z,52.75
2023-05-05T10:31:25.791Z,52.89
2023-05-05T10:33:56.498Z,53.60
2023-05-05T10:36:26.461Z,53.45
2023-05-05T10:38:57.475Z,53.05
2023-05-05T10:41:26.338Z,53.72
2023-05-05T10:43:57.237Z,53.34
2023-05-05T10:46:26.205Z,53.04
2023-05-05T10:49:01.031Z,54.43
2023-05-05T10:51:41.673Z,53.71
2023-05-05T10:54:15.007Z,55.08
2023-05-05T10:56:43.950Z,53.44
2023-05-05T10:59:48.888Z,53.15
2023-05-05T11:02:27.197Z,53.72
2023-05-05T11:05:09.511Z,53.14
2023-05-05T11:07:39.045Z,53.24
2023-05-05T11:10:08.195Z,53.99
2023-05-05T11:13:05.953Z,52.91
2023-05-05T11:15:38.573Z,53.50
2023-05-05T11:18:08.378Z,52.85
2023-05-05T11:21:05.499Z,52.16
2023-05-05T11:23:35.286Z,51.62
2023-05-05T11:26:06.568Z,50.43
2023-05-05T11:28:34.616Z,51.02
2023-05-05T11:31:19.697Z,52.08
2023-05-05T11:33:48.136Z,50.80
2023-05-05T11:36:17.876Z,51.08
2023-05-05T11:39:02.804Z,50.84
2023-05-05T11:42:14.071Z,52.18
2023-05-05T11:44:42.613Z,52.11
2023-05-05T11:47:30.570Z,50.91
2023-05-05T11:49:58.714Z,51.78
2023-05-05T11:52:28.424Z,51.05
2023-05-05T11:55:02.336Z,51.46
2023-05-05T11:57:31.475Z,51.50
2023-05-05T12:00:01.671Z,52.49
2023-05-05T12:02:31.414Z,51.52
2023-05-05T12:05:00.961Z,51.28
2023-05-05T12:07:30.482Z,50.72
2023-05-05T12:10:06.595Z,51.99
2023-05-05T12:12:36.661Z,51.81
2023-05-05T12:15:05.617Z,50.87
2023-05-05T12:17:42.728Z,51.63
2023-05-05T12:20:12.315Z,52.12
2023-05-05T12:22:40.819Z,52.59
2023-05-05T12:25:11.131Z,53.32
2023-05-05T12:27:40.518Z,54.03
2023-05-05T12:30:16.803Z,52.11
2023-05-05T12:32:45.733Z,52.15
2023-05-05T12:35:14.755Z,52.70
2023-05-05T12:37:44.567Z,53.23
2023-05-05T12:40:45.747Z,52.51
2023-05-05T12:43:30.632Z,53.02
2023-05-05T12:46:06.422Z,52.05
2023-05-05T12:48:34.993Z,53.43
2023-05-05T12:51:13.939Z,52.95
2023-05-05T12:53:41.845Z,53.22
2023-05-05T12:56:31.067Z,53.21
2023-05-05T12:59:00.998Z,53.08
2023-05-05T13:01:29.213Z,51.77
2023-05-05T13:04:10.068Z,52.84
2023-05-05T13:06:38.803Z,52.70
2023-05-05T13:09:07.572Z,53.78
2023-05-05T13:11:42.320Z,53.91
2023-05-05T13:14:11.685Z,52.76
2023-05-05T13:16:39.805Z,52.72
2023-05-05T13:19:07.711Z,52.69
2023-05-05T13:21:35.507Z,53.31
2023-05-05T13:24:19.097Z,51.84
2023-05-05T13:26:52.061Z,51.52
2023-05-05T13:29:23.585Z,50.88
2023-05-05T13:31:54.584Z,51.60
2023-05-05T13:34:22.527Z,51.63
2023-05-05T13:36:50.595Z,51.74
2023-05-05T13:39:18.470Z,52.59
2023-05-05T13:41:46.267Z,53.22
2023-05-05T13:44:14.855Z,52.56
2023-05-05T13:46:44.267Z,51.87
2023-05-05T13:49:12.265Z,52.07
2023-05-05T13:51:40.115Z,51.37
2023-05-05T13:54:08.528Z,51.85
2023-05-05T13:56:36.500Z,51.85
2023-05-05T13:59:04.290Z,51.58
2023-05-05T14:01:32.440Z,50.35
2023-05-05T14:04:04.521Z,50.47
2023-05-05T14:06:33.849Z,50.42
2023-05-05T14:09:05.642Z,50.63
2023-05-05T14:11:33.601Z,50.61
2023-05-05T14:14:01.642Z,51.08
2023-05-05T14:16:29.614Z,50.45
2023-05-05T14:18:57.540Z,51.27
2023-05-05T14:21:27.662Z,51.52
2023-05-05T14:23:55.782Z,50.98
2023-05-05T14:26:23.625Z,51.43
2023-05-05T14:28:51.566Z,51.41
2023-05-05T14:31:27.370Z,51.63
2023-05-05T14:33:55.254Z,52.55
2023-05-05T14:36:23.570Z,51.48
2023-05-05T14:38:52.862Z,52.89
2023-05-05T14:41:21.156Z,52.21
2023-05-05T14:43:54.237Z,51.83
2023-05-05T14:46:22.136Z,52.00
2023-05-05T14:48:50.059Z,52.54
2023-05-05T14:51:22.118Z,52.82
2023-05-05T14:53:51.175Z,53.00
2023-05-05T14:56:21.867Z,52.72
2023-05-05T14:58:49.835Z,52.83
2023-05-05T15:01:17.818Z,52.67
2023-05-05T15:03:46.244Z,53.34
2023-05-05T15:06:14.213Z,53.77
2023-05-05T15:08:42.010Z,53.66
2023-05-05T15:11:09.981Z,53.99
2023-05-05T15:13:41.358Z,54.21
2023-05-05T15:16:09.671Z,55.30
2023-05-05T15:18:37.726Z,54.38
2023-05-05T15:21:05.834Z,54.27
2023-05-05T15:23:33.704Z,54.10
2023-05-05T15:26:01.771Z,54.66
2023-05-05T15:28:29.712Z,54.81
2023-05-05T15:31:03.312Z,54.56
2023-05-05T15:33:33.617Z,54.46
2023-05-05T15:36:01.510Z,55.05
2023-05-05T15:38:30.643Z,55.17
2023-05-05T15:40:58.437Z,55.51
2023-05-05T15:43:26.480Z,55.32
2023-05-05T15:45:55.120Z,56.19
2023-05-05T15:48:24.388Z,55.49
2023-05-05T15:50:52.254Z,55.61
2023-05-05T15:53:20.212Z,56.54
2023-05-05T15:55:48.051Z,56.13
2023-05-05T15:58:18.621Z,56.44
2023-05-05T16:00:46.491Z,56.32
2023-05-05T16:03:14.386Z,55.98
2023-05-05T16:05:43.712Z,56.60
2023-05-05T16:08:11.647Z,55.73
2023-05-05T16:10:39.587Z,55.88
2023-05-05T16:13:07.543Z,56.39
2023-05-05T16:15:35.852Z,55.96
2023-05-05T16:18:03.924Z,55.88
2023-05-05T16:20:31.869Z,56.37
2023-05-05T16:23:01.034Z,55.93
2023-05-05T16:25:28.958Z,56.06
2023-05-05T16:27:57.571Z,56.25
2023-05-05T16:30:25.965Z,56.62
2023-05-05T16:32:54.641Z,56.03
2023-05-05T16:35:26.572Z,56.33
2023-05-05T16:37:54.721Z,56.15
2023-05-05T16:40:26.793Z,56.13
2023-05-05T16:42:54.694Z,56.68
2023-05-05T16:45:22.584Z,56.98
2023-05-05T16:47:50.496Z,57.46
2023-05-05T16:50:18.463Z,57.81
2023-05-05T16:52:46.388Z,57.64
2023-05-05T16:55:14.489Z,57.75
2023-05-05T16:57:43.867Z,57.81
2023-05-05T17:00:12.634Z,58.03
2023-05-05T17:02:40.516Z,58.34
2023-05-05T17:05:09.810Z,58.55
2023-05-05T17:07:37.888Z,58.34
2023-05-05T17:10:06.817Z,59.04
2023-05-05T17:12:34.806Z,59.21
2023-05-05T17:15:04.246Z,59.21
2023-05-05T17:17:32.146Z,60.27
2023-05-05T17:20:01.080Z,59.81
2023-05-05T17:22:29.029Z,60.08
2023-05-05T17:24:56.978Z,60.11
2023-05-05T17:27:25.042Z,60.06
2023-05-05T17:29:53.671Z,60.12
2023-05-05T17:32:22.932Z,60.65
2023-05-05T17:34:50.762Z,60.91
2023-05-05T17:37:21.854Z,60.45
2023-05-05T17:39:50.186Z,61.02
2023-05-05T17:42:22.955Z,61.24
2023-05-05T17:44:51.266Z,61.50
2023-05-05T17:47:22.178Z,61.25
2023-05-05T17:49:53.788Z,61.33
2023-05-05T17:52:24.084Z,61.97
2023-05-05T17:54:55.279Z,61.81
2023-05-05T17:57:23.251Z,62.00
2023-05-05T17:59:53.225Z,62.54
2023-05-05T18:02:21.235Z,62.62
2023-05-05T18:04:49.223Z,62.60
2023-05-05T18:07:18.504Z,62.62
2023-05-05T18:09:46.424Z,63.35
2023-05-05T18:12:14.296Z,63.33
2023-05-05T18:14:42.171Z,63.58
2023-05-05T18:17:10.010Z,63.48
2023-05-05T18:19:39.021Z,63.70
2023-05-05T18:22:06.967Z,63.18
2023-05-05T18:24:36.159Z,63.78
2023-05-05T18:27:06.318Z,64.40
2023-05-05T18:29:35.163Z,63.64
2023-05-05T18:32:03.020Z,64.36
2023-05-05T18:34:31.241Z,64.51
2023-05-05T18:37:00.362Z,64.43
2023-05-05T18:39:31.422Z,64.60
2023-05-05T18:42:00.710Z,64.71
2023-05-05T18:44:28.726Z,64.29
2023-05-05T18:46:56.683Z,64.94
2023-05-05T18:49:24.999Z,64.97
2023-05-05T18:51:53.732Z,64.88
2023-05-05T18:54:21.951Z,64.64
2023-05-05T18:56:50.001Z,65.35
2023-05-05T18:59:19.286Z,65.07
2023-05-05T19:01:47.133Z,65.76
2023-05-05T19:07:09.322Z,65.98
2023-05-05T19:09:37.344Z,66.03
2023-05-05T19:12:05.755Z,65.74
2023-05-05T19:14:35.012Z,66.29
2023-05-05T19:17:03.108Z,66.03
2023-05-05T19:19:31.295Z,66.55
2023-05-05T19:21:59.951Z,66.47
2023-05-05T19:24:29.180Z,67.02
2023-05-05T19:26:57.191Z,67.10
2023-05-05T19:29:25.044Z,67.25
2023-05-05T19:31:54.349Z,67.10
2023-05-05T19:34:22.195Z,67.41
2023-05-05T19:36:50.387Z,67.28
2023-05-05T19:39:18.233Z,67.45
2023-05-05T19:41:46.496Z,67.83
2023-05-05T19:44:14.266Z,67.31
2023-05-05T19:46:44.516Z,68.02
2023-05-05T19:49:14.576Z,67.96
2023-05-05T19:51:43.841Z,67.92
2023-05-05T19:54:13.380Z,68.30
2023-05-05T19:56:41.252Z,68.04
2023-05-05T19:59:09.280Z,68.22
2023-05-05T20:01:37.204Z,68.36
2023-05-05T20:04:05.116Z,68.18
2023-05-05T20:06:35.846Z,68.44
2023-05-05T20:09:03.814Z,68.42
2023-05-05T20:11:32.164Z,68.80
2023-05-05T20:14:00.140Z,68.73
2023-05-05T20:16:28.095Z,69.02
2023-05-05T20:18:56.078Z,69.44
2023-05-05T20:21:24.166Z,68.96
2023-05-05T20:23:54.499Z,69.29
2023-05-05T20:26:22.604Z,69.49
2023-05-05T20:28:54.242Z,69.15
2023-05-05T20:31:22.247Z,69.46
2023-05-05T20:33:50.031Z,69.65
2023-05-05T20:36:19.377Z,69.78
2023-05-05T20:38:47.223Z,69.51
2023-05-05T20:41:16.622Z,69.68
2023-05-05T20:43:48.534Z,69.80
2023-05-05T20:46:16.636Z,70.03
2023-05-05T20:48:45.590Z,69.79
2023-05-05T20:51:13.431Z,70.41
2023-05-05T20:53:41.371Z,70.53
2023-05-05T20:56:09.393Z,70.67
2023-05-05T20:58:38.676Z,70.63
2023-05-05T21:01:06.657Z,70.93
2023-05-05T21:03:34.536Z,70.80
2023-05-05T21:06:03.020Z,70.69
2023-05-05T21:08:31.136Z,70.88
2023-05-05T21:10:58.964Z,70.97
2023-05-05T21:13:26.933Z,71.33
2023-05-05T21:15:56.288Z,71.11
2023-05-05T21:18:25.727Z,70.96
2023-05-05T21:20:53.574Z,71.25
2023-05-05T21:23:21.599Z,71.79
2023-05-05T21:25:49.649Z,71.79
2023-05-05T21:28:17.646Z,72.19
2023-05-05T21:30:54.921Z,72.63
2023-05-05T21:33:34.515Z,75.32
2023-05-05T21:36:02.439Z,77.21
2023-05-05T21:38:30.421Z,78.46
2023-05-05T21:40:58.988Z,79.55
2023-05-05T21:43:28.598Z,79.29
2023-05-05T21:46:00.786Z,78.83
2023-05-05T21:48:28.684Z,79.20
2023-05-05T21:50:58.460Z,79.19
2023-05-05T21:53:26.484Z,78.14
2023-05-05T21:55:54.556Z,79.25
2023-05-05T21:58:22.658Z,79.15
2023-05-05T22:00:50.730Z,80.05
2023-05-05T22:03:18.852Z,80.46
2023-05-05T22:05:47.224Z,82.25
2023-05-05T22:08:16.559Z,83.03
2023-05-05T22:10:44.508Z,84.10
2023-05-05T22:13:12.582Z,84.12
2023-05-05T22:15:46.688Z,85.35
2023-05-05T22:18:15.732Z,86.39
2023-05-05T22:20:44.026Z,85.04
2023-05-05T22:23:13.990Z,86.04
2023-05-05T22:25:44.373Z,85.96
2023-05-05T22:28:12.511Z,86.38
2023-05-05T22:30:40.651Z,86.02
2023-05-05T22:33:09.055Z,85.98
2023-05-05T22:35:38.245Z,87.01
2023-05-05T22:38:06.370Z,88.09
2023-05-05T22:40:34.297Z,89.16
2023-05-05T22:43:03.468Z,89.05
2023-05-05T22:45:31.330Z,89.72
2023-05-05T22:48:04.099Z,90.56
2023-05-05T22:50:32.055Z,91.27
2023-05-05T22:53:00.142Z,91.97
2023-05-05T22:55:27.980Z,91.59
2023-05-05T22:57:56.019Z,91.90
2023-05-05T23:00:28.393Z,92.58
2023-05-05T23:02:56.585Z,93.29
2023-05-05T23:05:24.810Z,93.39
2023-05-05T23:07:52.593Z,94.82
2023-05-05T23:10:20.344Z,94.48
2023-05-05T23:12:48.178Z,94.80
2023-05-05T23:15:16.252Z,95.16
2023-05-05T23:17:45.518Z,96.20
2023-05-05T23:20:14.145Z,96.41
2023-05-05T23:22:42.351Z,97.00
2023-05-05T23:25:11.302Z,97.21
2023-05-05T23:27:41.075Z,97.21
2023-05-05T23:30:10.273Z,98.31
2023-05-05T23:32:38.185Z,98.53
2023-05-05T23:35:08.844Z,99.11
2023-05-05T23:37:36.824Z,99.30
2023-05-05T23:40:05.357Z,99.31
2023-05-05T23:42:33.175Z,100.00
2023-05-05T23:45:01.360Z,100.00
2023-05-05T23:47:29.242Z,100.00
2023-05-05T23:49:58.442Z,100.00
2023-05-05T23:52:33.364Z,100.00
2023-05-05T23:55:01.228Z,100.00
2023-05-05T23:57:29.117Z,100.00
2023-05-05T23:59:56.863Z,100.00
